Foley, Minnesota
Current Conditions -  °F | °C
As of 9:53 PM on Wednesday 17 Dec 2014 (Local Time) from KSTC Reporting Station
Broken Clouds Broken Clouds  
Wind Chill: 13°   Ceiling: 2200
Heat Index: 13°   Visibility: 10mi
Dew Point:   Wind: 0mph
Humidity: 77%   Direction: NA
Pressure: 30.31"   Gusts: NA
Location:  45.66°N, 93.91°W
Report Text: KSTC 180353Z 00000KT 10SM BKN022 M11/M14 A3031 RMK AO2 SLP297 I1000 T11061139
Loading
Personal Weather Stations






























Interactive Weather Map New forecast layout! Learn more

10-Day Weather Forecast

Advertisements
Track Severe Weather on mobile